sensor_id;sensor_type;location;lat;lon;timestamp;pressure;altitude;pressure_sealevel;temperature;humidity
41230;BME280;26964;50.428;19.218;2023-04-23T00:00:56;1015.2;;;8.1;46.9
41230;BME280;26964;50.428;19.218;2023-04-23T00:01:57;1015.2;;;8.1;46.9
41230;BME280;26964;50.428;19.218;2023-04-23T00:02:56;1015.2;;;8.1;46.9
41230;BME280;26964;50.428;19.218;2023-04-23T00:03:56;1015.2;;;8.0;47.0
41230;BME280;26964;50.428;19.218;2023-04-23T00:04:56;1015.2;;;8.0;47.0
41230;BME280;26964;50.428;19.218;2023-04-23T00:05:56;1015.2;;;8.0;47.1
41230;BME280;26964;50.428;19.218;2023-04-23T00:06:56;1015.2;;;8.0;47.1
41230;BME280;26964;50.428;19.218;2023-04-23T00:07:57;1015.2;;;8.0;47.2
41230;BME280;26964;50.428;19.218;2023-04-23T00:08:56;1015.2;;;7.9;47.2
41230;BME280;26964;50.428;19.218;2023-04-23T00:09:56;1015.2;;;7.9;47.2
41230;BME280;26964;50.428;19.218;2023-04-23T00:10:56;1015.2;;;7.9;47.3
41230;BME280;26964;50.428;19.218;2023-04-23T00:11:56;1015.2;;;7.9;47.3
41230;BME280;26964;50.428;19.218;2023-04-23T00:12:56;1015.3;;;7.9;47.3
41230;BME280;26964;50.428;19.218;2023-04-23T00:13:56;1015.2;;;7.8;47.4
41230;BME280;26964;50.428;19.218;2023-04-23T00:14:56;1015.2;;;7.8;47.4
41230;BME280;26964;50.428;19.218;2023-04-23T00:15:56;1015.2;;;7.8;47.4
41230;BME280;26964;50.428;19.218;2023-04-23T00:16:56;1015.2;;;7.8;47.4
41230;BME280;26964;50.428;19.218;2023-04-23T00:17:57;1015.2;;;7.8;47.5
41230;BME280;26964;50.428;19.218;2023-04-23T00:18:57;1015.2;;;7.7;47.5
41230;BME280;26964;50.428;19.218;2023-04-23T00:19:56;1015.2;;;7.7;47.5
41230;BME280;26964;50.428;19.218;2023-04-23T00:20:56;1015.1;;;7.7;47.6
41230;BME280;26964;50.428;19.218;2023-04-23T00:21:55;1015.2;;;7.6;47.6
41230;BME280;26964;50.428;19.218;2023-04-23T00:22:56;1015.1;;;7.6;47.6
41230;BME280;26964;50.428;19.218;2023-04-23T00:23:56;1015.1;;;7.6;47.7
41230;BME280;26964;50.428;19.218;2023-04-23T00:24:56;1015.1;;;7.6;47.7
41230;BME280;26964;50.428;19.218;2023-04-23T00:25:55;1015.1;;;7.5;47.8
41230;BME280;26964;50.428;19.218;2023-04-23T00:26:56;1015.1;;;7.5;47.8
41230;BME280;26964;50.428;19.218;2023-04-23T00:27:56;1015.2;;;7.5;47.8
41230;BME280;26964;50.428;19.218;2023-04-23T00:28:56;1015.2;;;7.5;47.9
41230;BME280;26964;50.428;19.218;2023-04-23T00:29:56;1015.2;;;7.5;47.9
41230;BME280;26964;50.428;19.218;2023-04-23T00:30:56;1015.2;;;7.5;47.9
41230;BME280;26964;50.428;19.218;2023-04-23T00:31:56;1015.2;;;7.4;48.0
41230;BME280;26964;50.428;19.218;2023-04-23T00:32:56;1015.2;;;7.4;48.0
41230;BME280;26964;50.428;19.218;2023-04-23T00:33:56;1015.2;;;7.4;48.1
41230;BME280;26964;50.428;19.218;2023-04-23T00:34:56;1015.1;;;7.4;48.0
41230;BME280;26964;50.428;19.218;2023-04-23T00:35:56;1015.2;;;7.4;48.1
41230;BME280;26964;50.428;19.218;2023-04-23T00:36:56;1015.2;;;7.4;48.2
41230;BME280;26964;50.428;19.218;2023-04-23T00:37:56;1015.1;;;7.4;48.2
41230;BME280;26964;50.428;19.218;2023-04-23T00:38:56;1015.2;;;7.3;48.3
41230;BME280;26964;50.428;19.218;2023-04-23T00:39:56;1015.2;;;7.3;48.3
41230;BME280;26964;50.428;19.218;2023-04-23T00:40:56;1015.2;;;7.3;48.3
41230;BME280;26964;50.428;19.218;2023-04-23T00:41:57;1015.2;;;7.3;48.3
41230;BME280;26964;50.428;19.218;2023-04-23T00:42:56;1015.2;;;7.3;48.4
41230;BME280;26964;50.428;19.218;2023-04-23T00:43:56;1015.2;;;7.3;48.4
41230;BME280;26964;50.428;19.218;2023-04-23T00:44:57;1015.3;;;7.2;48.5
41230;BME280;26964;50.428;19.218;2023-04-23T00:45:55;1015.2;;;7.2;48.5
41230;BME280;26964;50.428;19.218;2023-04-23T00:46:55;1015.1;;;7.2;48.6
41230;BME280;26964;50.428;19.218;2023-04-23T00:47:57;1015.3;;;7.2;48.6
41230;BME280;26964;50.428;19.218;2023-04-23T00:48:56;1015.2;;;7.2;48.7
41230;BME280;26964;50.428;19.218;2023-04-23T00:49:56;1015.2;;;7.2;48.7
41230;BME280;26964;50.428;19.218;2023-04-23T00:50:57;1015.2;;;7.2;48.8
41230;BME280;26964;50.428;19.218;2023-04-23T00:51:56;1015.1;;;7.2;48.8
41230;BME280;26964;50.428;19.218;2023-04-23T00:52:56;1015.1;;;7.1;48.8
41230;BME280;26964;50.428;19.218;2023-04-23T00:53:57;1015.2;;;7.1;48.9
41230;BME280;26964;50.428;19.218;2023-04-23T00:54:56;1015.2;;;7.1;48.9
41230;BME280;26964;50.428;19.218;2023-04-23T00:55:56;1015.1;;;7.1;48.9
41230;BME280;26964;50.428;19.218;2023-04-23T00:56:56;1015.2;;;7.1;48.9
41230;BME280;26964;50.428;19.218;2023-04-23T00:57:55;1015.2;;;7.1;49.0
41230;BME280;26964;50.428;19.218;2023-04-23T00:58:55;1015.1;;;7.0;49.1
41230;BME280;26964;50.428;19.218;2023-04-23T00:59:56;1015.1;;;7.0;49.1
41230;BME280;26964;50.428;19.218;2023-04-23T01:00:56;1015.2;;;7.0;49.1
41230;BME280;26964;50.428;19.218;2023-04-23T01:01:55;1015.2;;;7.0;49.1
41230;BME280;26964;50.428;19.218;2023-04-23T01:02:56;1015.2;;;6.9;49.2
41230;BME280;26964;50.428;19.218;2023-04-23T01:03:55;1015.2;;;6.9;49.2
41230;BME280;26964;50.428;19.218;2023-04-23T01:04:57;1015.2;;;6.9;49.2
41230;BME280;26964;50.428;19.218;2023-04-23T01:05:56;1015.1;;;6.9;49.3
41230;BME280;26964;50.428;19.218;2023-04-23T01:06:55;1015.2;;;6.8;49.4
41230;BME280;26964;50.428;19.218;2023-04-23T01:07:56;1015.2;;;6.8;49.5
41230;BME280;26964;50.428;19.218;2023-04-23T01:08:56;1015.2;;;6.8;49.5
41230;BME280;26964;50.428;19.218;2023-04-23T01:09:56;1015.2;;;6.8;49.6
41230;BME280;26964;50.428;19.218;2023-04-23T01:10:56;1015.1;;;6.8;49.6
41230;BME280;26964;50.428;19.218;2023-04-23T01:11:55;1015.1;;;6.8;49.7
41230;BME280;26964;50.428;19.218;2023-04-23T01:12:56;1015.2;;;6.8;49.7
41230;BME280;26964;50.428;19.218;2023-04-23T01:13:57;1015.2;;;6.8;49.8
41230;BME280;26964;50.428;19.218;2023-04-23T01:14:56;1015.1;;;6.8;49.8
41230;BME280;26964;50.428;19.218;2023-04-23T01:15:55;1015.1;;;6.8;49.8
41230;BME280;26964;50.428;19.218;2023-04-23T01:16:56;1015.2;;;6.9;49.9
41230;BME280;26964;50.428;19.218;2023-04-23T01:17:55;1015.1;;;6.9;49.9
41230;BME280;26964;50.428;19.218;2023-04-23T01:18:55;1015.1;;;6.9;49.9
41230;BME280;26964;50.428;19.218;2023-04-23T01:19:55;1015.1;;;6.9;50.0
41230;BME280;26964;50.428;19.218;2023-04-23T01:20:56;1015.2;;;6.9;50.0
41230;BME280;26964;50.428;19.218;2023-04-23T01:21:55;1015.1;;;6.9;50.1
41230;BME280;26964;50.428;19.218;2023-04-23T01:22:56;1015.2;;;7.0;50.1
41230;BME280;26964;50.428;19.218;2023-04-23T01:23:55;1015.1;;;7.0;50.1
41230;BME280;26964;50.428;19.218;2023-04-23T01:25:00;1015.1;;;7.0;50.1
41230;BME280;26964;50.428;19.218;2023-04-23T01:26:00;1015.1;;;7.0;50.1
41230;BME280;26964;50.428;19.218;2023-04-23T01:26:55;1015.1;;;7.0;50.1
41230;BME280;26964;50.428;19.218;2023-04-23T01:27:56;1015.1;;;7.0;50.1
41230;BME280;26964;50.428;19.218;2023-04-23T01:28:55;1015.1;;;7.0;50.1
41230;BME280;26964;50.428;19.218;2023-04-23T01:29:56;1015.1;;;7.0;50.1
41230;BME280;26964;50.428;19.218;2023-04-23T01:30:55;1015.1;;;7.0;50.2
41230;BME280;26964;50.428;19.218;2023-04-23T01:31:56;1015.1;;;7.1;50.2
41230;BME280;26964;50.428;19.218;2023-04-23T01:32:56;1015.1;;;7.1;50.2
41230;BME280;26964;50.428;19.218;2023-04-23T01:33:56;1015.0;;;7.1;50.3
41230;BME280;26964;50.428;19.218;2023-04-23T01:34:56;1015.1;;;7.1;50.3
41230;BME280;26964;50.428;19.218;2023-04-23T01:35:56;1015.0;;;7.1;50.3
41230;BME280;26964;50.428;19.218;2023-04-23T01:36:56;1015.2;;;7.1;50.3
41230;BME280;26964;50.428;19.218;2023-04-23T01:37:56;1015.1;;;7.1;50.3
41230;BME280;26964;50.428;19.218;2023-04-23T01:38:55;1015.1;;;7.1;50.3
41230;BME280;26964;50.428;19.218;2023-04-23T01:39:56;1015.1;;;7.1;50.4
41230;BME280;26964;50.428;19.218;2023-04-23T01:40:56;1015.1;;;7.1;50.4
41230;BME280;26964;50.428;19.218;2023-04-23T01:41:56;1015.0;;;7.1;50.4
41230;BME280;26964;50.428;19.218;2023-04-23T01:42:56;1015.1;;;7.1;50.4
41230;BME280;26964;50.428;19.218;2023-04-23T01:43:56;1015.0;;;7.1;50.4
41230;BME280;26964;50.428;19.218;2023-04-23T01:44:55;1015.0;;;7.1;50.5
41230;BME280;26964;50.428;19.218;2023-04-23T01:45:56;1015.0;;;7.1;50.5
41230;BME280;26964;50.428;19.218;2023-04-23T01:46:55;1015.0;;;7.1;50.5
41230;BME280;26964;50.428;19.218;2023-04-23T01:47:55;1015.1;;;7.1;50.5
41230;BME280;26964;50.428;19.218;2023-04-23T01:48:55;1015.1;;;7.2;50.5
41230;BME280;26964;50.428;19.218;2023-04-23T01:49:55;1015.1;;;7.2;50.6
41230;BME280;26964;50.428;19.218;2023-04-23T01:50:55;1015.0;;;7.2;50.5
41230;BME280;26964;50.428;19.218;2023-04-23T01:51:56;1015.1;;;7.2;50.6
41230;BME280;26964;50.428;19.218;2023-04-23T01:52:56;1015.0;;;7.2;50.6
41230;BME280;26964;50.428;19.218;2023-04-23T01:53:56;1015.0;;;7.2;50.6
41230;BME280;26964;50.428;19.218;2023-04-23T01:54:55;1015.1;;;7.2;50.6
41230;BME280;26964;50.428;19.218;2023-04-23T01:55:56;1015.0;;;7.2;50.6
41230;BME280;26964;50.428;19.218;2023-04-23T01:56:56;1015.1;;;7.2;50.6
41230;BME280;26964;50.428;19.218;2023-04-23T01:57:55;1015.1;;;7.2;50.7
41230;BME280;26964;50.428;19.218;2023-04-23T01:58:56;1015.1;;;7.2;50.7
41230;BME280;26964;50.428;19.218;2023-04-23T02:00:02;1015.0;;;7.2;50.7
41230;BME280;26964;50.428;19.218;2023-04-23T02:00:56;1015.0;;;7.2;50.7
41230;BME280;26964;50.428;19.218;2023-04-23T02:01:56;1015.0;;;7.2;50.8
41230;BME280;26964;50.428;19.218;2023-04-23T02:02:56;1015.0;;;7.2;50.8
41230;BME280;26964;50.428;19.218;2023-04-23T02:03:56;1015.1;;;7.2;50.8
41230;BME280;26964;50.428;19.218;2023-04-23T02:04:56;1015.0;;;7.2;50.8
41230;BME280;26964;50.428;19.218;2023-04-23T02:05:57;1015.1;;;7.2;50.8
41230;BME280;26964;50.428;19.218;2023-04-23T02:06:55;1015.0;;;7.2;50.8
41230;BME280;26964;50.428;19.218;2023-04-23T02:07:55;1015.0;;;7.2;50.9
41230;BME280;26964;50.428;19.218;2023-04-23T02:08:56;1015.1;;;7.2;50.9
41230;BME280;26964;50.428;19.218;2023-04-23T02:09:56;1015.0;;;7.2;50.9
41230;BME280;26964;50.428;19.218;2023-04-23T02:10:56;1015.0;;;7.2;50.9
41230;BME280;26964;50.428;19.218;2023-04-23T02:11:56;1014.9;;;7.2;50.9
41230;BME280;26964;50.428;19.218;2023-04-23T02:12:56;1015.0;;;7.2;50.9
41230;BME280;26964;50.428;19.218;2023-04-23T02:13:56;1015.0;;;7.2;50.9
41230;BME280;26964;50.428;19.218;2023-04-23T02:14:56;1015.0;;;7.3;50.9
41230;BME280;26964;50.428;19.218;2023-04-23T02:15:56;1015.0;;;7.3;50.9
41230;BME280;26964;50.428;19.218;2023-04-23T02:16:56;1014.9;;;7.3;51.0
41230;BME280;26964;50.428;19.218;2023-04-23T02:17:55;1015.0;;;7.3;51.0
41230;BME280;26964;50.428;19.218;2023-04-23T02:18:56;1015.1;;;7.3;51.0
41230;BME280;26964;50.428;19.218;2023-04-23T02:19:58;1015.0;;;7.3;51.0
41230;BME280;26964;50.428;19.218;2023-04-23T02:20:56;1015.0;;;7.3;51.0
41230;BME280;26964;50.428;19.218;2023-04-23T02:21:55;1015.0;;;7.3;51.0
41230;BME280;26964;50.428;19.218;2023-04-23T02:22:56;1015.0;;;7.3;51.0
41230;BME280;26964;50.428;19.218;2023-04-23T02:23:55;1014.9;;;7.3;51.1
41230;BME280;26964;50.428;19.218;2023-04-23T02:24:56;1014.9;;;7.3;51.1
41230;BME280;26964;50.428;19.218;2023-04-23T02:25:56;1014.9;;;7.3;51.1
41230;BME280;26964;50.428;19.218;2023-04-23T02:26:56;1014.9;;;7.3;51.1
41230;BME280;26964;50.428;19.218;2023-04-23T02:27:56;1015.0;;;7.3;51.1
41230;BME280;26964;50.428;19.218;2023-04-23T02:28:55;1014.9;;;7.3;51.1
41230;BME280;26964;50.428;19.218;2023-04-23T02:29:56;1014.9;;;7.3;51.1
41230;BME280;26964;50.428;19.218;2023-04-23T02:30:56;1014.9;;;7.3;51.1
41230;BME280;26964;50.428;19.218;2023-04-23T02:31:55;1015.0;;;7.3;51.2
41230;BME280;26964;50.428;19.218;2023-04-23T02:32:57;1014.9;;;7.3;51.2
41230;BME280;26964;50.428;19.218;2023-04-23T02:33:56;1014.9;;;7.3;51.2
41230;BME280;26964;50.428;19.218;2023-04-23T02:34:56;1014.9;;;7.2;51.3
41230;BME280;26964;50.428;19.218;2023-04-23T02:35:55;1014.9;;;7.2;51.3
41230;BME280;26964;50.428;19.218;2023-04-23T02:36:56;1014.9;;;7.2;51.3
41230;BME280;26964;50.428;19.218;2023-04-23T02:37:55;1014.9;;;7.2;51.3
41230;BME280;26964;50.428;19.218;2023-04-23T02:38:56;1014.9;;;7.2;51.3
41230;BME280;26964;50.428;19.218;2023-04-23T02:39:56;1014.9;;;7.2;51.3
41230;BME280;26964;50.428;19.218;2023-04-23T02:40:56;1014.9;;;7.2;51.3
41230;BME280;26964;50.428;19.218;2023-04-23T02:41:56;1014.8;;;7.2;51.3
41230;BME280;26964;50.428;19.218;2023-04-23T02:42:56;1014.9;;;7.2;51.3
41230;BME280;26964;50.428;19.218;2023-04-23T02:43:56;1014.9;;;7.2;51.4
41230;BME280;26964;50.428;19.218;2023-04-23T02:44:56;1014.9;;;7.2;51.4
41230;BME280;26964;50.428;19.218;2023-04-23T02:45:56;1014.9;;;7.2;51.4
41230;BME280;26964;50.428;19.218;2023-04-23T02:46:56;1014.8;;;7.2;51.4
41230;BME280;26964;50.428;19.218;2023-04-23T02:47:56;1014.8;;;7.1;51.5
41230;BME280;26964;50.428;19.218;2023-04-23T02:48:56;1014.9;;;7.1;51.5
41230;BME280;26964;50.428;19.218;2023-04-23T02:49:56;1014.8;;;7.1;51.5
41230;BME280;26964;50.428;19.218;2023-04-23T02:50:56;1014.9;;;7.1;51.5
41230;BME280;26964;50.428;19.218;2023-04-23T02:51:56;1014.8;;;7.1;51.5
41230;BME280;26964;50.428;19.218;2023-04-23T02:52:56;1014.8;;;7.1;51.5
41230;BME280;26964;50.428;19.218;2023-04-23T02:53:55;1014.8;;;7.1;51.6
41230;BME280;26964;50.428;19.218;2023-04-23T02:54:55;1014.8;;;7.1;51.6
41230;BME280;26964;50.428;19.218;2023-04-23T02:55:55;1014.9;;;7.1;51.6
41230;BME280;26964;50.428;19.218;2023-04-23T02:56:56;1014.9;;;7.1;51.5
41230;BME280;26964;50.428;19.218;2023-04-23T02:57:56;1014.8;;;7.1;51.6
41230;BME280;26964;50.428;19.218;2023-04-23T02:58:56;1014.9;;;7.1;51.6
41230;BME280;26964;50.428;19.218;2023-04-23T02:59:58;1014.9;;;7.1;51.6
41230;BME280;26964;50.428;19.218;2023-04-23T03:00:56;1014.9;;;7.0;51.6
41230;BME280;26964;50.428;19.218;2023-04-23T03:01:56;1014.8;;;7.0;51.7
41230;BME280;26964;50.428;19.218;2023-04-23T03:02:56;1014.8;;;7.0;51.7
41230;BME280;26964;50.428;19.218;2023-04-23T03:03:56;1014.9;;;7.0;51.7
41230;BME280;26964;50.428;19.218;2023-04-23T03:04:56;1014.9;;;7.0;51.7
41230;BME280;26964;50.428;19.218;2023-04-23T03:05:56;1014.8;;;7.0;51.7
41230;BME280;26964;50.428;19.218;2023-04-23T03:06:56;1014.9;;;6.9;51.7
41230;BME280;26964;50.428;19.218;2023-04-23T03:07:56;1014.8;;;6.9;51.9
41230;BME280;26964;50.428;19.218;2023-04-23T03:08:56;1014.9;;;6.9;51.9
41230;BME280;26964;50.428;19.218;2023-04-23T03:09:55;1014.9;;;6.9;51.9
41230;BME280;26964;50.428;19.218;2023-04-23T03:10:56;1014.9;;;6.9;51.9
41230;BME280;26964;50.428;19.218;2023-04-23T03:11:55;1014.9;;;6.8;52.0
41230;BME280;26964;50.428;19.218;2023-04-23T03:12:56;1015.0;;;6.8;52.0
41230;BME280;26964;50.428;19.218;2023-04-23T03:13:56;1014.9;;;6.8;52.0
41230;BME280;26964;50.428;19.218;2023-04-23T03:14:55;1014.9;;;6.8;52.0
41230;BME280;26964;50.428;19.218;2023-04-23T03:15:55;1014.9;;;6.8;52.1
41230;BME280;26964;50.428;19.218;2023-04-23T03:16:56;1014.9;;;6.7;52.1
41230;BME280;26964;50.428;19.218;2023-04-23T03:17:56;1014.9;;;6.7;52.2
41230;BME280;26964;50.428;19.218;2023-04-23T03:18:56;1014.8;;;6.7;52.2
41230;BME280;26964;50.428;19.218;2023-04-23T03:19:56;1014.9;;;6.7;52.2
41230;BME280;26964;50.428;19.218;2023-04-23T03:20:56;1014.9;;;6.7;52.3
41230;BME280;26964;50.428;19.218;2023-04-23T03:21:56;1014.9;;;6.6;52.3
41230;BME280;26964;50.428;19.218;2023-04-23T03:22:55;1014.9;;;6.6;52.3
41230;BME280;26964;50.428;19.218;2023-04-23T03:23:55;1014.9;;;6.6;52.4
41230;BME280;26964;50.428;19.218;2023-04-23T03:24:57;1014.9;;;6.6;52.4
41230;BME280;26964;50.428;19.218;2023-04-23T03:25:56;1014.8;;;6.6;52.5
41230;BME280;26964;50.428;19.218;2023-04-23T03:26:56;1014.8;;;6.5;52.5
41230;BME280;26964;50.428;19.218;2023-04-23T03:27:56;1014.9;;;6.5;52.5
41230;BME280;26964;50.428;19.218;2023-04-23T03:28:56;1014.8;;;6.5;52.5
41230;BME280;26964;50.428;19.218;2023-04-23T03:29:55;1014.8;;;6.5;52.6
41230;BME280;26964;50.428;19.218;2023-04-23T03:30:56;1014.8;;;6.4;52.6
41230;BME280;26964;50.428;19.218;2023-04-23T03:31:56;1014.8;;;6.4;52.6
41230;BME280;26964;50.428;19.218;2023-04-23T03:32:55;1014.8;;;6.4;52.6
41230;BME280;26964;50.428;19.218;2023-04-23T03:33:55;1014.8;;;6.4;52.6
41230;BME280;26964;50.428;19.218;2023-04-23T03:34:56;1014.8;;;6.3;52.7
41230;BME280;26964;50.428;19.218;2023-04-23T03:35:56;1014.8;;;6.3;52.7
41230;BME280;26964;50.428;19.218;2023-04-23T03:36:56;1014.8;;;6.3;52.7
41230;BME280;26964;50.428;19.218;2023-04-23T03:37:56;1014.8;;;6.3;52.7
41230;BME280;26964;50.428;19.218;2023-04-23T03:38:56;1014.8;;;6.2;52.7
41230;BME280;26964;50.428;19.218;2023-04-23T03:39:56;1014.8;;;6.2;52.8
41230;BME280;26964;50.428;19.218;2023-04-23T03:40:56;1014.9;;;6.2;52.8
41230;BME280;26964;50.428;19.218;2023-04-23T03:41:56;1014.8;;;6.2;52.9
41230;BME280;26964;50.428;19.218;2023-04-23T03:42:56;1014.8;;;6.1;52.9
41230;BME280;26964;50.428;19.218;2023-04-23T03:43:56;1014.9;;;6.1;52.9
41230;BME280;26964;50.428;19.218;2023-04-23T03:44:55;1014.9;;;6.1;53.0
41230;BME280;26964;50.428;19.218;2023-04-23T03:45:56;1015.0;;;6.1;53.0
41230;BME280;26964;50.428;19.218;2023-04-23T03:46:56;1014.9;;;6.1;53.0
41230;BME280;26964;50.428;19.218;2023-04-23T03:47:56;1014.9;;;6.1;53.1
41230;BME280;26964;50.428;19.218;2023-04-23T03:48:56;1014.9;;;6.1;53.1
41230;BME280;26964;50.428;19.218;2023-04-23T03:49:56;1014.8;;;6.0;53.1
41230;BME280;26964;50.428;19.218;2023-04-23T03:50:56;1014.9;;;6.0;53.2
41230;BME280;26964;50.428;19.218;2023-04-23T03:51:56;1014.9;;;6.0;53.2
41230;BME280;26964;50.428;19.218;2023-04-23T03:52:56;1015.0;;;6.0;53.2
41230;BME280;26964;50.428;19.218;2023-04-23T03:53:56;1014.9;;;6.0;53.3
41230;BME280;26964;50.428;19.218;2023-04-23T03:54:55;1014.9;;;6.0;53.3
41230;BME280;26964;50.428;19.218;2023-04-23T03:55:55;1015.0;;;6.0;53.3
41230;BME280;26964;50.428;19.218;2023-04-23T03:56:56;1014.9;;;6.0;53.3
41230;BME280;26964;50.428;19.218;2023-04-23T03:57:57;1014.8;;;6.0;53.4
41230;BME280;26964;50.428;19.218;2023-04-23T03:58:56;1015.0;;;6.0;53.5
41230;BME280;26964;50.428;19.218;2023-04-23T03:59:55;1014.9;;;6.0;53.5
41230;BME280;26964;50.428;19.218;2023-04-23T04:00:56;1014.9;;;6.0;53.6
41230;BME280;26964;50.428;19.218;2023-04-23T04:01:56;1015.0;;;6.0;53.6
41230;BME280;26964;50.428;19.218;2023-04-23T04:02:56;1014.9;;;6.0;53.6
41230;BME280;26964;50.428;19.218;2023-04-23T04:03:56;1014.9;;;6.0;53.6
41230;BME280;26964;50.428;19.218;2023-04-23T04:04:56;1014.9;;;6.0;53.7
41230;BME280;26964;50.428;19.218;2023-04-23T04:05:55;1015.0;;;6.0;53.7
41230;BME280;26964;50.428;19.218;2023-04-23T04:06:55;1014.9;;;6.0;53.7
41230;BME280;26964;50.428;19.218;2023-04-23T04:07:56;1014.9;;;6.0;53.8
41230;BME280;26964;50.428;19.218;2023-04-23T04:08:56;1014.9;;;6.0;53.8
41230;BME280;26964;50.428;19.218;2023-04-23T04:09:56;1015.0;;;6.0;53.8
41230;BME280;26964;50.428;19.218;2023-04-23T04:10:55;1015.0;;;6.1;53.9
41230;BME280;26964;50.428;19.218;2023-04-23T04:11:56;1015.0;;;6.1;53.9
41230;BME280;26964;50.428;19.218;2023-04-23T04:12:56;1015.0;;;6.1;53.9
41230;BME280;26964;50.428;19.218;2023-04-23T04:13:56;1014.9;;;6.1;54.0
41230;BME280;26964;50.428;19.218;2023-04-23T04:14:56;1014.9;;;6.1;54.0
41230;BME280;26964;50.428;19.218;2023-04-23T04:15:56;1014.9;;;6.1;54.0
41230;BME280;26964;50.428;19.218;2023-04-23T04:16:56;1015.0;;;6.1;54.1
41230;BME280;26964;50.428;19.218;2023-04-23T04:17:56;1014.9;;;6.1;54.1
41230;BME280;26964;50.428;19.218;2023-04-23T04:18:55;1014.9;;;6.1;54.1
41230;BME280;26964;50.428;19.218;2023-04-23T04:19:55;1015.0;;;6.1;54.1
41230;BME280;26964;50.428;19.218;2023-04-23T04:20:56;1014.9;;;6.1;54.1
41230;BME280;26964;50.428;19.218;2023-04-23T04:21:56;1015.0;;;6.1;54.2
41230;BME280;26964;50.428;19.218;2023-04-23T04:22:57;1015.0;;;6.1;54.2
41230;BME280;26964;50.428;19.218;2023-04-23T04:23:57;1014.9;;;6.1;54.2
41230;BME280;26964;50.428;19.218;2023-04-23T04:24:56;1015.0;;;6.2;54.2
41230;BME280;26964;50.428;19.218;2023-04-23T04:25:56;1014.9;;;6.2;54.3
41230;BME280;26964;50.428;19.218;2023-04-23T04:26:56;1014.9;;;6.2;54.3
41230;BME280;26964;50.428;19.218;2023-04-23T04:27:56;1014.9;;;6.2;54.4
41230;BME280;26964;50.428;19.218;2023-04-23T04:28:56;1014.9;;;6.2;54.4
41230;BME280;26964;50.428;19.218;2023-04-23T04:29:56;1014.9;;;6.2;54.5
41230;BME280;26964;50.428;19.218;2023-04-23T04:30:56;1014.9;;;6.2;54.5
41230;BME280;26964;50.428;19.218;2023-04-23T04:31:55;1014.9;;;6.3;54.5
41230;BME280;26964;50.428;19.218;2023-04-23T04:32:56;1015.0;;;6.3;54.6
41230;BME280;26964;50.428;19.218;2023-04-23T04:33:56;1014.9;;;6.3;54.5
41230;BME280;26964;50.428;19.218;2023-04-23T04:34:55;1014.9;;;6.3;54.5
41230;BME280;26964;50.428;19.218;2023-04-23T04:35:56;1014.9;;;6.3;54.6
41230;BME280;26964;50.428;19.218;2023-04-23T04:36:56;1014.8;;;6.3;54.6
41230;BME280;26964;50.428;19.218;2023-04-23T04:37:55;1014.8;;;6.3;54.6
41230;BME280;26964;50.428;19.218;2023-04-23T04:38:56;1014.9;;;6.4;54.6
41230;BME280;26964;50.428;19.218;2023-04-23T04:39:55;1014.9;;;6.4;54.7
41230;BME280;26964;50.428;19.218;2023-04-23T04:40:55;1015.0;;;6.4;54.7
41230;BME280;26964;50.428;19.218;2023-04-23T04:41:55;1014.9;;;6.4;54.7
41230;BME280;26964;50.428;19.218;2023-04-23T04:42:56;1015.0;;;6.5;54.7
41230;BME280;26964;50.428;19.218;2023-04-23T04:43:56;1014.9;;;6.5;54.8
41230;BME280;26964;50.428;19.218;2023-04-23T04:44:56;1014.9;;;6.5;54.8
41230;BME280;26964;50.428;19.218;2023-04-23T04:45:56;1015.0;;;6.5;54.8
41230;BME280;26964;50.428;19.218;2023-04-23T04:46:55;1015.0;;;6.6;54.8
41230;BME280;26964;50.428;19.218;2023-04-23T04:47:56;1014.9;;;6.6;54.8
41230;BME280;26964;50.428;19.218;2023-04-23T04:48:56;1015.0;;;6.6;54.9
41230;BME280;26964;50.428;19.218;2023-04-23T04:49:57;1015.0;;;6.6;55.0
41230;BME280;26964;50.428;19.218;2023-04-23T04:50:55;1015.0;;;6.7;55.0
41230;BME280;26964;50.428;19.218;2023-04-23T04:51:56;1015.0;;;6.7;55.0
41230;BME280;26964;50.428;19.218;2023-04-23T04:52:56;1015.0;;;6.7;55.1
41230;BME280;26964;50.428;19.218;2023-04-23T04:53:56;1014.9;;;6.8;55.1
41230;BME280;26964;50.428;19.218;2023-04-23T04:54:56;1015.0;;;6.8;55.1
41230;BME280;26964;50.428;19.218;2023-04-23T04:55:56;1015.0;;;6.8;55.1
41230;BME280;26964;50.428;19.218;2023-04-23T04:56:55;1014.9;;;6.8;55.2
41230;BME280;26964;50.428;19.218;2023-04-23T04:57:56;1015.0;;;6.9;55.2
41230;BME280;26964;50.428;19.218;2023-04-23T04:58:56;1014.9;;;6.9;55.2
41230;BME280;26964;50.428;19.218;2023-04-23T04:59:56;1015.0;;;6.9;55.2
41230;BME280;26964;50.428;19.218;2023-04-23T05:00:57;1015.0;;;7.0;55.3
41230;BME280;26964;50.428;19.218;2023-04-23T05:01:55;1014.9;;;7.0;55.2
41230;BME280;26964;50.428;19.218;2023-04-23T05:02:56;1014.9;;;7.1;55.3
41230;BME280;26964;50.428;19.218;2023-04-23T05:03:56;1014.9;;;7.1;55.3
41230;BME280;26964;50.428;19.218;2023-04-23T05:04:56;1015.0;;;7.1;55.4
41230;BME280;26964;50.428;19.218;2023-04-23T05:05:55;1014.9;;;7.2;55.4
41230;BME280;26964;50.428;19.218;2023-04-23T05:06:56;1015.0;;;7.2;55.4
41230;BME280;26964;50.428;19.218;2023-04-23T05:07:56;1015.0;;;7.2;55.5
41230;BME280;26964;50.428;19.218;2023-04-23T05:08:56;1014.9;;;7.3;55.5
41230;BME280;26964;50.428;19.218;2023-04-23T05:09:56;1015.0;;;7.3;55.5
41230;BME280;26964;50.428;19.218;2023-04-23T05:10:55;1014.9;;;7.3;55.5
41230;BME280;26964;50.428;19.218;2023-04-23T05:11:55;1014.9;;;7.4;55.5
41230;BME280;26964;50.428;19.218;2023-04-23T05:12:56;1014.9;;;7.4;55.5
41230;BME280;26964;50.428;19.218;2023-04-23T05:13:55;1014.9;;;7.4;55.6
41230;BME280;26964;50.428;19.218;2023-04-23T05:14:57;1014.9;;;7.5;55.5
41230;BME280;26964;50.428;19.218;2023-04-23T05:15:56;1014.9;;;7.5;55.6
41230;BME280;26964;50.428;19.218;2023-04-23T05:16:56;1015.0;;;7.6;55.6
41230;BME280;26964;50.428;19.218;2023-04-23T05:17:56;1015.0;;;7.6;55.6
41230;BME280;26964;50.428;19.218;2023-04-23T05:18:56;1014.9;;;7.6;55.6
41230;BME280;26964;50.428;19.218;2023-04-23T05:19:56;1014.9;;;7.7;55.6
41230;BME280;26964;50.428;19.218;2023-04-23T05:20:56;1015.0;;;7.7;55.6
41230;BME280;26964;50.428;19.218;2023-04-23T05:21:56;1014.9;;;7.7;55.6
41230;BME280;26964;50.428;19.218;2023-04-23T05:22:55;1014.9;;;7.8;55.7
41230;BME280;26964;50.428;19.218;2023-04-23T05:23:55;1015.0;;;7.8;55.6
41230;BME280;26964;50.428;19.218;2023-04-23T05:24:55;1014.9;;;7.9;55.7
41230;BME280;26964;50.428;19.218;2023-04-23T05:25:56;1014.9;;;7.9;55.7
41230;BME280;26964;50.428;19.218;2023-04-23T05:26:56;1014.9;;;7.9;55.7
41230;BME280;26964;50.428;19.218;2023-04-23T05:27:55;1014.9;;;8.0;55.7
41230;BME280;26964;50.428;19.218;2023-04-23T05:28:56;1014.9;;;8.0;55.7
41230;BME280;26964;50.428;19.218;2023-04-23T05:29:56;1014.9;;;8.1;55.7
41230;BME280;26964;50.428;19.218;2023-04-23T05:30:55;1015.0;;;8.1;55.7
41230;BME280;26964;50.428;19.218;2023-04-23T05:31:56;1015.0;;;8.1;55.7
41230;BME280;26964;50.428;19.218;2023-04-23T05:32:56;1014.9;;;8.2;55.7
41230;BME280;26964;50.428;19.218;2023-04-23T05:33:56;1015.0;;;8.2;55.8
41230;BME280;26964;50.428;19.218;2023-04-23T05:34:55;1014.9;;;8.3;55.8
41230;BME280;26964;50.428;19.218;2023-04-23T05:35:56;1015.0;;;8.3;55.8